Webcam

2019/02/15 19:50 EBBR 151950Z 18005KT CAVOK 07/02 Q1027 NOSIG

Webcam

--- Refresh now ---